sensor_id;sensor_type;location;lat;lon;timestamp;P1;durP1;ratioP1;P2;durP2;ratioP2
18520;SDS011;9390;51.244;6.982;2023-04-01T00:01:04;5.53;;;1.60;;
18520;SDS011;9390;51.244;6.982;2023-04-01T00:06:09;8.75;;;1.30;;
18520;SDS011;9390;51.244;6.982;2023-04-01T00:08:42;7.63;;;1.58;;
18520;SDS011;9390;51.244;6.982;2023-04-01T00:11:14;4.20;;;1.20;;
18520;SDS011;9390;51.244;6.982;2023-04-01T00:13:46;11.35;;;1.33;;
18520;SDS011;9390;51.244;6.982;2023-04-01T00:16:18;2.78;;;1.13;;
18520;SDS011;9390;51.244;6.982;2023-04-01T00:18:51;5.28;;;1.30;;
18520;SDS011;9390;51.244;6.982;2023-04-01T00:21:22;7.05;;;1.60;;
18520;SDS011;9390;51.244;6.982;2023-04-01T00:23:54;7.07;;;1.20;;
18520;SDS011;9390;51.244;6.982;2023-04-01T00:26:25;6.80;;;1.20;;
18520;SDS011;9390;51.244;6.982;2023-04-01T00:28:57;6.57;;;1.23;;
18520;SDS011;9390;51.244;6.982;2023-04-01T00:31:29;8.13;;;1.23;;
18520;SDS011;9390;51.244;6.982;2023-04-01T00:34:02;4.32;;;1.23;;
18520;SDS011;9390;51.244;6.982;2023-04-01T00:36:33;3.95;;;1.02;;
18520;SDS011;9390;51.244;6.982;2023-04-01T00:39:05;6.05;;;1.10;;
18520;SDS011;9390;51.244;6.982;2023-04-01T00:41:37;5.57;;;1.30;;
18520;SDS011;9390;51.244;6.982;2023-04-01T00:44:12;3.95;;;1.33;;
18520;SDS011;9390;51.244;6.982;2023-04-01T00:46:46;5.75;;;1.40;;
18520;SDS011;9390;51.244;6.982;2023-04-01T00:49:20;2.42;;;1.10;;
18520;SDS011;9390;51.244;6.982;2023-04-01T00:51:53;8.07;;;1.27;;
18520;SDS011;9390;51.244;6.982;2023-04-01T00:54:26;4.85;;;1.38;;
18520;SDS011;9390;51.244;6.982;2023-04-01T00:56:59;8.27;;;1.45;;
18520;SDS011;9390;51.244;6.982;2023-04-01T00:59:32;9.68;;;1.60;;
18520;SDS011;9390;51.244;6.982;2023-04-01T01:02:05;4.53;;;1.20;;
18520;SDS011;9390;51.244;6.982;2023-04-01T01:04:40;5.80;;;1.40;;
18520;SDS011;9390;51.244;6.982;2023-04-01T01:07:14;5.35;;;1.33;;
18520;SDS011;9390;51.244;6.982;2023-04-01T01:09:53;4.07;;;1.35;;
18520;SDS011;9390;51.244;6.982;2023-04-01T01:12:30;9.50;;;1.42;;
18520;SDS011;9390;51.244;6.982;2023-04-01T01:15:06;5.05;;;1.50;;
18520;SDS011;9390;51.244;6.982;2023-04-01T01:17:44;5.75;;;1.30;;
18520;SDS011;9390;51.244;6.982;2023-04-01T01:20:29;3.55;;;1.23;;
18520;SDS011;9390;51.244;6.982;2023-04-01T01:23:19;5.45;;;1.20;;
18520;SDS011;9390;51.244;6.982;2023-04-01T01:26:05;9.18;;;1.40;;
18520;SDS011;9390;51.244;6.982;2023-04-01T01:28:47;3.28;;;1.30;;
18520;SDS011;9390;51.244;6.982;2023-04-01T01:31:25;3.80;;;1.20;;
18520;SDS011;9390;51.244;6.982;2023-04-01T01:34:00;5.93;;;1.35;;
18520;SDS011;9390;51.244;6.982;2023-04-01T01:36:37;4.25;;;1.27;;
18520;SDS011;9390;51.244;6.982;2023-04-01T01:39:12;3.55;;;1.40;;
18520;SDS011;9390;51.244;6.982;2023-04-01T01:41:44;4.87;;;1.43;;
18520;SDS011;9390;51.244;6.982;2023-04-01T01:44:19;4.15;;;1.33;;
18520;SDS011;9390;51.244;6.982;2023-04-01T01:46:51;5.22;;;1.10;;
18520;SDS011;9390;51.244;6.982;2023-04-01T01:49:22;4.55;;;1.38;;
18520;SDS011;9390;51.244;6.982;2023-04-01T01:51:55;7.60;;;1.25;;
18520;SDS011;9390;51.244;6.982;2023-04-01T01:54:27;6.90;;;1.48;;
18520;SDS011;9390;51.244;6.982;2023-04-01T01:57:01;4.18;;;1.20;;
18520;SDS011;9390;51.244;6.982;2023-04-01T01:59:35;1.90;;;1.00;;
18520;SDS011;9390;51.244;6.982;2023-04-01T02:02:08;3.13;;;1.17;;
18520;SDS011;9390;51.244;6.982;2023-04-01T02:04:41;3.57;;;1.07;;
18520;SDS011;9390;51.244;6.982;2023-04-01T02:07:18;6.25;;;1.13;;
18520;SDS011;9390;51.244;6.982;2023-04-01T02:09:52;3.03;;;1.00;;
18520;SDS011;9390;51.244;6.982;2023-04-01T02:12:23;6.88;;;1.10;;
18520;SDS011;9390;51.244;6.982;2023-04-01T02:14:57;2.65;;;0.90;;
18520;SDS011;9390;51.244;6.982;2023-04-01T02:17:30;4.25;;;1.17;;
18520;SDS011;9390;51.244;6.982;2023-04-01T02:20:04;3.40;;;1.00;;
18520;SDS011;9390;51.244;6.982;2023-04-01T02:22:41;4.30;;;1.10;;
18520;SDS011;9390;51.244;6.982;2023-04-01T02:25:16;7.55;;;1.20;;
18520;SDS011;9390;51.244;6.982;2023-04-01T02:27:49;5.10;;;1.08;;
18520;SDS011;9390;51.244;6.982;2023-04-01T02:30:20;3.92;;;1.20;;
18520;SDS011;9390;51.244;6.982;2023-04-01T02:32:52;4.47;;;1.10;;
18520;SDS011;9390;51.244;6.982;2023-04-01T02:35:24;2.17;;;1.00;;
18520;SDS011;9390;51.244;6.982;2023-04-01T02:37:57;2.92;;;1.38;;
18520;SDS011;9390;51.244;6.982;2023-04-01T02:40:29;8.30;;;2.25;;
18520;SDS011;9390;51.244;6.982;2023-04-01T02:43:00;5.95;;;1.30;;
18520;SDS011;9390;51.244;6.982;2023-04-01T02:45:31;5.93;;;1.10;;
18520;SDS011;9390;51.244;6.982;2023-04-01T02:48:03;8.30;;;1.35;;
18520;SDS011;9390;51.244;6.982;2023-04-01T02:50:35;4.93;;;1.13;;
18520;SDS011;9390;51.244;6.982;2023-04-01T02:53:08;5.57;;;1.13;;
18520;SDS011;9390;51.244;6.982;2023-04-01T02:55:39;4.57;;;1.00;;
18520;SDS011;9390;51.244;6.982;2023-04-01T02:58:10;6.55;;;1.10;;
18520;SDS011;9390;51.244;6.982;2023-04-01T03:00:42;5.93;;;1.27;;
18520;SDS011;9390;51.244;6.982;2023-04-01T03:03:13;3.33;;;1.13;;
18520;SDS011;9390;51.244;6.982;2023-04-01T03:05:45;6.40;;;1.30;;
18520;SDS011;9390;51.244;6.982;2023-04-01T03:08:17;4.15;;;1.05;;
18520;SDS011;9390;51.244;6.982;2023-04-01T03:10:49;2.90;;;1.00;;
18520;SDS011;9390;51.244;6.982;2023-04-01T03:13:20;5.55;;;1.00;;
18520;SDS011;9390;51.244;6.982;2023-04-01T03:15:52;5.03;;;1.20;;
18520;SDS011;9390;51.244;6.982;2023-04-01T03:18:23;6.00;;;1.08;;
18520;SDS011;9390;51.244;6.982;2023-04-01T03:20:55;1.92;;;0.90;;
18520;SDS011;9390;51.244;6.982;2023-04-01T03:23:27;2.72;;;0.90;;
18520;SDS011;9390;51.244;6.982;2023-04-01T03:25:59;2.10;;;0.98;;
18520;SDS011;9390;51.244;6.982;2023-04-01T03:28:30;2.92;;;0.70;;
18520;SDS011;9390;51.244;6.982;2023-04-01T03:31:02;4.95;;;1.08;;
18520;SDS011;9390;51.244;6.982;2023-04-01T03:33:33;2.88;;;0.90;;
18520;SDS011;9390;51.244;6.982;2023-04-01T03:36:05;7.68;;;1.13;;
18520;SDS011;9390;51.244;6.982;2023-04-01T03:38:39;3.05;;;1.10;;
18520;SDS011;9390;51.244;6.982;2023-04-01T03:41:11;3.60;;;1.00;;
18520;SDS011;9390;51.244;6.982;2023-04-01T03:43:43;2.63;;;1.00;;
18520;SDS011;9390;51.244;6.982;2023-04-01T03:46:16;1.40;;;0.75;;
18520;SDS011;9390;51.244;6.982;2023-04-01T03:51:19;1.33;;;0.85;;
18520;SDS011;9390;51.244;6.982;2023-04-01T03:53:52;5.35;;;1.17;;
18520;SDS011;9390;51.244;6.982;2023-04-01T03:56:23;3.75;;;1.08;;
18520;SDS011;9390;51.244;6.982;2023-04-01T03:58:55;1.60;;;1.00;;
18520;SDS011;9390;51.244;6.982;2023-04-01T04:01:26;5.85;;;1.85;;
18520;SDS011;9390;51.244;6.982;2023-04-01T04:03:57;3.90;;;1.38;;
18520;SDS011;9390;51.244;6.982;2023-04-01T04:06:29;3.42;;;1.10;;
18520;SDS011;9390;51.244;6.982;2023-04-01T04:09:02;4.13;;;1.27;;
18520;SDS011;9390;51.244;6.982;2023-04-01T04:11:34;4.05;;;1.60;;
18520;SDS011;9390;51.244;6.982;2023-04-01T04:14:05;5.60;;;1.30;;
18520;SDS011;9390;51.244;6.982;2023-04-01T04:16:36;6.18;;;1.50;;
18520;SDS011;9390;51.244;6.982;2023-04-01T04:19:08;7.70;;;1.40;;
18520;SDS011;9390;51.244;6.982;2023-04-01T04:21:39;5.70;;;1.40;;
18520;SDS011;9390;51.244;6.982;2023-04-01T04:24:12;3.20;;;1.35;;
18520;SDS011;9390;51.244;6.982;2023-04-01T04:26:44;5.70;;;1.40;;
18520;SDS011;9390;51.244;6.982;2023-04-01T04:29:15;3.25;;;1.45;;
18520;SDS011;9390;51.244;6.982;2023-04-01T04:31:46;5.32;;;1.65;;
18520;SDS011;9390;51.244;6.982;2023-04-01T04:34:18;3.13;;;1.58;;
18520;SDS011;9390;51.244;6.982;2023-04-01T04:36:49;6.70;;;1.98;;
18520;SDS011;9390;51.244;6.982;2023-04-01T04:39:22;5.22;;;1.75;;
18520;SDS011;9390;51.244;6.982;2023-04-01T04:41:53;4.35;;;1.73;;
18520;SDS011;9390;51.244;6.982;2023-04-01T04:44:24;5.43;;;1.73;;
18520;SDS011;9390;51.244;6.982;2023-04-01T04:46:56;8.82;;;2.40;;
18520;SDS011;9390;51.244;6.982;2023-04-01T04:49:27;14.70;;;3.10;;
18520;SDS011;9390;51.244;6.982;2023-04-01T04:51:59;7.22;;;2.90;;
18520;SDS011;9390;51.244;6.982;2023-04-01T04:54:31;9.40;;;2.50;;
18520;SDS011;9390;51.244;6.982;2023-04-01T04:57:03;6.85;;;2.50;;
18520;SDS011;9390;51.244;6.982;2023-04-01T04:59:34;7.63;;;2.55;;
18520;SDS011;9390;51.244;6.982;2023-04-01T05:02:06;7.75;;;2.58;;
18520;SDS011;9390;51.244;6.982;2023-04-01T05:04:37;10.27;;;2.53;;
18520;SDS011;9390;51.244;6.982;2023-04-01T05:07:10;6.50;;;2.22;;
18520;SDS011;9390;51.244;6.982;2023-04-01T05:09:42;10.20;;;2.30;;
18520;SDS011;9390;51.244;6.982;2023-04-01T05:12:15;8.80;;;2.70;;
18520;SDS011;9390;51.244;6.982;2023-04-01T05:14:47;10.02;;;3.10;;
18520;SDS011;9390;51.244;6.982;2023-04-01T05:17:18;8.77;;;3.25;;
18520;SDS011;9390;51.244;6.982;2023-04-01T05:19:49;8.75;;;2.65;;
18520;SDS011;9390;51.244;6.982;2023-04-01T05:22:21;10.30;;;3.00;;
18520;SDS011;9390;51.244;6.982;2023-04-01T05:24:53;9.02;;;3.35;;
18520;SDS011;9390;51.244;6.982;2023-04-01T05:27:25;10.18;;;3.85;;
18520;SDS011;9390;51.244;6.982;2023-04-01T05:29:56;7.90;;;3.40;;
18520;SDS011;9390;51.244;6.982;2023-04-01T05:32:28;10.18;;;3.80;;
18520;SDS011;9390;51.244;6.982;2023-04-01T05:34:59;6.93;;;3.22;;
18520;SDS011;9390;51.244;6.982;2023-04-01T05:37:30;11.60;;;3.45;;
18520;SDS011;9390;51.244;6.982;2023-04-01T05:40:04;8.38;;;3.88;;
18520;SDS011;9390;51.244;6.982;2023-04-01T05:42:36;7.30;;;3.38;;
18520;SDS011;9390;51.244;6.982;2023-04-01T05:45:08;10.52;;;3.90;;
18520;SDS011;9390;51.244;6.982;2023-04-01T05:47:40;12.63;;;4.25;;
18520;SDS011;9390;51.244;6.982;2023-04-01T05:50:12;12.45;;;4.25;;
18520;SDS011;9390;51.244;6.982;2023-04-01T05:52:43;9.07;;;3.67;;
18520;SDS011;9390;51.244;6.982;2023-04-01T05:55:17;14.48;;;4.82;;
18520;SDS011;9390;51.244;6.982;2023-04-01T06:00:20;12.50;;;4.47;;
18520;SDS011;9390;51.244;6.982;2023-04-01T06:02:51;16.63;;;4.45;;
18520;SDS011;9390;51.244;6.982;2023-04-01T06:05:24;12.82;;;4.47;;
18520;SDS011;9390;51.244;6.982;2023-04-01T06:07:58;11.85;;;4.75;;
18520;SDS011;9390;51.244;6.982;2023-04-01T06:10:35;15.20;;;4.53;;
18520;SDS011;9390;51.244;6.982;2023-04-01T06:13:10;12.60;;;4.60;;
18520;SDS011;9390;51.244;6.982;2023-04-01T06:15:51;12.20;;;4.63;;
18520;SDS011;9390;51.244;6.982;2023-04-01T06:18:35;11.00;;;3.92;;
18520;SDS011;9390;51.244;6.982;2023-04-01T06:21:19;9.80;;;4.10;;
18520;SDS011;9390;51.244;6.982;2023-04-01T06:24:16;11.50;;;4.50;;
18520;SDS011;9390;51.244;6.982;2023-04-01T06:27:10;11.68;;;4.53;;
18520;SDS011;9390;51.244;6.982;2023-04-01T06:29:50;13.90;;;5.85;;
18520;SDS011;9390;51.244;6.982;2023-04-01T06:32:30;14.02;;;5.40;;
18520;SDS011;9390;51.244;6.982;2023-04-01T06:37:53;13.25;;;5.32;;
18520;SDS011;9390;51.244;6.982;2023-04-01T06:40:39;12.82;;;4.88;;
18520;SDS011;9390;51.244;6.982;2023-04-01T06:43:22;15.68;;;5.80;;
18520;SDS011;9390;51.244;6.982;2023-04-01T06:45:59;16.42;;;5.10;;
18520;SDS011;9390;51.244;6.982;2023-04-01T06:48:38;15.35;;;5.13;;
18520;SDS011;9390;51.244;6.982;2023-04-01T06:51:18;20.25;;;5.18;;
18520;SDS011;9390;51.244;6.982;2023-04-01T06:53:54;11.98;;;4.75;;
18520;SDS011;9390;51.244;6.982;2023-04-01T06:56:32;14.95;;;4.72;;
18520;SDS011;9390;51.244;6.982;2023-04-01T06:59:05;12.27;;;4.78;;
18520;SDS011;9390;51.244;6.982;2023-04-01T07:01:40;13.90;;;3.97;;
18520;SDS011;9390;51.244;6.982;2023-04-01T07:04:13;11.20;;;4.30;;
18520;SDS011;9390;51.244;6.982;2023-04-01T07:06:47;10.32;;;4.40;;
18520;SDS011;9390;51.244;6.982;2023-04-01T07:09:20;11.35;;;4.88;;
18520;SDS011;9390;51.244;6.982;2023-04-01T07:11:54;12.98;;;4.95;;
18520;SDS011;9390;51.244;6.982;2023-04-01T07:14:32;11.60;;;4.72;;
18520;SDS011;9390;51.244;6.982;2023-04-01T07:17:06;13.98;;;4.65;;
18520;SDS011;9390;51.244;6.982;2023-04-01T07:19:42;9.88;;;3.65;;
18520;SDS011;9390;51.244;6.982;2023-04-01T07:22:18;10.63;;;4.07;;
18520;SDS011;9390;51.244;6.982;2023-04-01T07:24:52;9.02;;;3.58;;
18520;SDS011;9390;51.244;6.982;2023-04-01T07:27:27;10.40;;;3.83;;
18520;SDS011;9390;51.244;6.982;2023-04-01T07:30:02;9.35;;;3.50;;
18520;SDS011;9390;51.244;6.982;2023-04-01T07:32:38;8.07;;;3.70;;
18520;SDS011;9390;51.244;6.982;2023-04-01T07:35:21;11.07;;;4.20;;
18520;SDS011;9390;51.244;6.982;2023-04-01T07:40:48;9.48;;;4.13;;
18520;SDS011;9390;51.244;6.982;2023-04-01T07:43:38;9.38;;;4.00;;
18520;SDS011;9390;51.244;6.982;2023-04-01T07:46:19;9.60;;;4.00;;
18520;SDS011;9390;51.244;6.982;2023-04-01T07:49:01;8.77;;;3.95;;
18520;SDS011;9390;51.244;6.982;2023-04-01T07:51:36;10.98;;;4.22;;
18520;SDS011;9390;51.244;6.982;2023-04-01T07:54:09;12.65;;;4.20;;
18520;SDS011;9390;51.244;6.982;2023-04-01T07:56:47;9.75;;;4.47;;
18520;SDS011;9390;51.244;6.982;2023-04-01T07:59:21;10.95;;;4.50;;
18520;SDS011;9390;51.244;6.982;2023-04-01T08:01:58;9.52;;;4.28;;
18520;SDS011;9390;51.244;6.982;2023-04-01T08:04:39;9.93;;;4.00;;
18520;SDS011;9390;51.244;6.982;2023-04-01T08:07:18;9.07;;;4.10;;
18520;SDS011;9390;51.244;6.982;2023-04-01T08:09:54;11.57;;;3.92;;
18520;SDS011;9390;51.244;6.982;2023-04-01T08:12:29;8.20;;;3.70;;
18520;SDS011;9390;51.244;6.982;2023-04-01T08:15:09;13.60;;;3.85;;
18520;SDS011;9390;51.244;6.982;2023-04-01T08:17:47;10.70;;;4.57;;
18520;SDS011;9390;51.244;6.982;2023-04-01T08:20:28;9.02;;;4.63;;
18520;SDS011;9390;51.244;6.982;2023-04-01T08:23:06;8.50;;;4.10;;
18520;SDS011;9390;51.244;6.982;2023-04-01T08:25:45;10.60;;;4.43;;
18520;SDS011;9390;51.244;6.982;2023-04-01T08:28:20;12.90;;;5.03;;
18520;SDS011;9390;51.244;6.982;2023-04-01T08:30:56;10.13;;;4.53;;
18520;SDS011;9390;51.244;6.982;2023-04-01T08:33:31;11.32;;;5.07;;
18520;SDS011;9390;51.244;6.982;2023-04-01T08:36:03;11.35;;;5.50;;
18520;SDS011;9390;51.244;6.982;2023-04-01T08:38:39;9.27;;;4.60;;
18520;SDS011;9390;51.244;6.982;2023-04-01T08:41:17;9.88;;;4.15;;
18520;SDS011;9390;51.244;6.982;2023-04-01T08:44:03;7.85;;;3.90;;
18520;SDS011;9390;51.244;6.982;2023-04-01T08:46:53;8.68;;;4.28;;
18520;SDS011;9390;51.244;6.982;2023-04-01T08:49:36;8.80;;;4.32;;
18520;SDS011;9390;51.244;6.982;2023-04-01T08:52:31;11.98;;;4.93;;
18520;SDS011;9390;51.244;6.982;2023-04-01T08:55:19;10.43;;;4.97;;
18520;SDS011;9390;51.244;6.982;2023-04-01T08:58:00;12.25;;;4.65;;
18520;SDS011;9390;51.244;6.982;2023-04-01T09:00:56;10.50;;;4.35;;
18520;SDS011;9390;51.244;6.982;2023-04-01T09:03:35;10.68;;;4.68;;
18520;SDS011;9390;51.244;6.982;2023-04-01T09:06:19;11.60;;;5.55;;
18520;SDS011;9390;51.244;6.982;2023-04-01T09:09:01;11.13;;;5.13;;
18520;SDS011;9390;51.244;6.982;2023-04-01T09:11:54;11.07;;;5.18;;
18520;SDS011;9390;51.244;6.982;2023-04-01T09:14:47;13.65;;;5.53;;
18520;SDS011;9390;51.244;6.982;2023-04-01T09:20:55;12.68;;;6.28;;
18520;SDS011;9390;51.244;6.982;2023-04-01T09:23:40;12.85;;;6.65;;
18520;SDS011;9390;51.244;6.982;2023-04-01T09:26:22;15.90;;;6.43;;
18520;SDS011;9390;51.244;6.982;2023-04-01T09:29:10;17.00;;;8.02;;
18520;SDS011;9390;51.244;6.982;2023-04-01T09:34:59;18.85;;;8.27;;
18520;SDS011;9390;51.244;6.982;2023-04-01T09:37:39;21.95;;;8.88;;
18520;SDS011;9390;51.244;6.982;2023-04-01T09:40:33;21.92;;;9.25;;
18520;SDS011;9390;51.244;6.982;2023-04-01T09:43:16;21.98;;;8.90;;
18520;SDS011;9390;51.244;6.982;2023-04-01T09:48:55;22.90;;;8.90;;
18520;SDS011;9390;51.244;6.982;2023-04-01T09:51:41;24.58;;;9.68;;
18520;SDS011;9390;51.244;6.982;2023-04-01T09:54:21;21.42;;;8.00;;
18520;SDS011;9390;51.244;6.982;2023-04-01T09:57:07;20.88;;;9.15;;
18520;SDS011;9390;51.244;6.982;2023-04-01T10:00:01;19.25;;;8.43;;
18520;SDS011;9390;51.244;6.982;2023-04-01T10:03:00;20.80;;;8.50;;
18520;SDS011;9390;51.244;6.982;2023-04-01T10:12:10;20.67;;;9.45;;
18520;SDS011;9390;51.244;6.982;2023-04-01T10:20:46;25.73;;;11.48;;
18520;SDS011;9390;51.244;6.982;2023-04-01T10:23:47;31.67;;;12.02;;
18520;SDS011;9390;51.244;6.982;2023-04-01T10:29:35;29.70;;;12.60;;
18520;SDS011;9390;51.244;6.982;2023-04-01T10:32:52;33.15;;;12.32;;
18520;SDS011;9390;51.244;6.982;2023-04-01T10:39:07;22.15;;;9.98;;
18520;SDS011;9390;51.244;6.982;2023-04-01T10:41:58;24.20;;;10.07;;
18520;SDS011;9390;51.244;6.982;2023-04-01T10:44:52;22.30;;;9.85;;
18520;SDS011;9390;51.244;6.982;2023-04-01T10:51:01;19.70;;;7.95;;
18520;SDS011;9390;51.244;6.982;2023-04-01T10:54:00;20.52;;;8.95;;
18520;SDS011;9390;51.244;6.982;2023-04-01T10:56:50;23.58;;;8.93;;
18520;SDS011;9390;51.244;6.982;2023-04-01T10:59:28;17.95;;;8.38;;
18520;SDS011;9390;51.244;6.982;2023-04-01T11:04:52;21.15;;;7.80;;
18520;SDS011;9390;51.244;6.982;2023-04-01T11:07:48;17.45;;;8.00;;
18520;SDS011;9390;51.244;6.982;2023-04-01T11:10:54;15.93;;;7.38;;
18520;SDS011;9390;51.244;6.982;2023-04-01T11:13:39;17.15;;;6.78;;
18520;SDS011;9390;51.244;6.982;2023-04-01T11:16:31;16.77;;;7.65;;
18520;SDS011;9390;51.244;6.982;2023-04-01T11:19:24;14.32;;;6.53;;
18520;SDS011;9390;51.244;6.982;2023-04-01T11:28:38;21.35;;;7.72;;
18520;SDS011;9390;51.244;6.982;2023-04-01T11:34:16;18.60;;;8.25;;
18520;SDS011;9390;51.244;6.982;2023-04-01T11:37:00;19.63;;;9.20;;
18520;SDS011;9390;51.244;6.982;2023-04-01T11:39:40;16.00;;;8.35;;
18520;SDS011;9390;51.244;6.982;2023-04-01T11:42:32;21.00;;;9.45;;
18520;SDS011;9390;51.244;6.982;2023-04-01T11:45:11;16.85;;;7.85;;
18520;SDS011;9390;51.244;6.982;2023-04-01T11:50:52;16.33;;;8.68;;
18520;SDS011;9390;51.244;6.982;2023-04-01T11:53:33;17.35;;;8.63;;
18520;SDS011;9390;51.244;6.982;2023-04-01T11:56:13;16.83;;;8.02;;
18520;SDS011;9390;51.244;6.982;2023-04-01T11:58:55;17.77;;;9.25;;
18520;SDS011;9390;51.244;6.982;2023-04-01T12:01:34;23.33;;;9.32;;
18520;SDS011;9390;51.244;6.982;2023-04-01T12:07:19;20.38;;;9.88;;
18520;SDS011;9390;51.244;6.982;2023-04-01T12:09:56;22.58;;;8.95;;
18520;SDS011;9390;51.244;6.982;2023-04-01T12:12:36;23.65;;;10.75;;
18520;SDS011;9390;51.244;6.982;2023-04-01T12:15:16;24.10;;;10.90;;
18520;SDS011;9390;51.244;6.982;2023-04-01T12:17:53;25.65;;;10.30;;
18520;SDS011;9390;51.244;6.982;2023-04-01T12:20:30;20.67;;;10.30;;
18520;SDS011;9390;51.244;6.982;2023-04-01T12:23:13;21.40;;;10.32;;
18520;SDS011;9390;51.244;6.982;2023-04-01T12:25:55;23.35;;;10.23;;
18520;SDS011;9390;51.244;6.982;2023-04-01T12:28:38;23.90;;;11.52;;
18520;SDS011;9390;51.244;6.982;2023-04-01T12:31:19;27.40;;;12.57;;
18520;SDS011;9390;51.244;6.982;2023-04-01T12:34:08;28.25;;;11.70;;
18520;SDS011;9390;51.244;6.982;2023-04-01T12:37:10;22.77;;;10.38;;
18520;SDS011;9390;51.244;6.982;2023-04-01T12:39:51;24.80;;;12.15;;
18520;SDS011;9390;51.244;6.982;2023-04-01T12:42:36;24.45;;;11.48;;
18520;SDS011;9390;51.244;6.982;2023-04-01T12:45:28;28.77;;;12.48;;
18520;SDS011;9390;51.244;6.982;2023-04-01T12:48:06;31.42;;;13.52;;
18520;SDS011;9390;51.244;6.982;2023-04-01T12:51:03;32.10;;;13.30;;
18520;SDS011;9390;51.244;6.982;2023-04-01T12:53:59;31.98;;;14.25;;
18520;SDS011;9390;51.244;6.982;2023-04-01T12:56:49;29.67;;;13.68;;
18520;SDS011;9390;51.244;6.982;2023-04-01T12:59:32;29.77;;;13.90;;
18520;SDS011;9390;51.244;6.982;2023-04-01T13:02:17;31.30;;;14.65;;
18520;SDS011;9390;51.244;6.982;2023-04-01T13:05:01;29.52;;;13.40;;
18520;SDS011;9390;51.244;6.982;2023-04-01T13:11:02;27.63;;;14.00;;
18520;SDS011;9390;51.244;6.982;2023-04-01T13:13:50;30.65;;;14.10;;
18520;SDS011;9390;51.244;6.982;2023-04-01T13:16:30;28.30;;;13.85;;
18520;SDS011;9390;51.244;6.982;2023-04-01T13:19:03;32.42;;;14.77;;
18520;SDS011;9390;51.244;6.982;2023-04-01T13:21:43;36.83;;;15.07;;
18520;SDS011;9390;51.244;6.982;2023-04-01T13:24:28;30.48;;;14.48;;
18520;SDS011;9390;51.244;6.982;2023-04-01T13:27:06;30.67;;;14.27;;
18520;SDS011;9390;51.244;6.982;2023-04-01T13:29:45;32.50;;;14.07;;
18520;SDS011;9390;51.244;6.982;2023-04-01T13:32:24;29.98;;;14.05;;
18520;SDS011;9390;51.244;6.982;2023-04-01T13:35:01;29.05;;;14.25;;
18520;SDS011;9390;51.244;6.982;2023-04-01T13:37:44;35.45;;;16.33;;
18520;SDS011;9390;51.244;6.982;2023-04-01T13:40:27;30.60;;;15.18;;
18520;SDS011;9390;51.244;6.982;2023-04-01T13:43:10;31.27;;;14.57;;
18520;SDS011;9390;51.244;6.982;2023-04-01T13:46:04;27.85;;;13.35;;
18520;SDS011;9390;51.244;6.982;2023-04-01T13:48:52;23.08;;;12.38;;
18520;SDS011;9390;51.244;6.982;2023-04-01T13:51:45;32.85;;;13.43;;
18520;SDS011;9390;51.244;6.982;2023-04-01T13:54:38;25.98;;;12.02;;
18520;SDS011;9390;51.244;6.982;2023-04-01T13:57:21;27.35;;;12.60;;
18520;SDS011;9390;51.244;6.982;2023-04-01T14:00:06;30.27;;;12.93;;
18520;SDS011;9390;51.244;6.982;2023-04-01T14:02:56;29.25;;;13.30;;
18520;SDS011;9390;51.244;6.982;2023-04-01T14:05:47;30.70;;;13.50;;
18520;SDS011;9390;51.244;6.982;2023-04-01T14:08:32;25.83;;;12.52;;
18520;SDS011;9390;51.244;6.982;2023-04-01T14:11:16;26.38;;;12.93;;
18520;SDS011;9390;51.244;6.982;2023-04-01T14:13:54;30.05;;;13.70;;
18520;SDS011;9390;51.244;6.982;2023-04-01T14:16:35;28.10;;;12.50;;
18520;SDS011;9390;51.244;6.982;2023-04-01T14:19:37;28.55;;;12.40;;
18520;SDS011;9390;51.244;6.982;2023-04-01T14:22:18;23.65;;;11.30;;
18520;SDS011;9390;51.244;6.982;2023-04-01T14:25:00;22.67;;;11.32;;
18520;SDS011;9390;51.244;6.982;2023-04-01T14:27:59;20.52;;;10.80;;
18520;SDS011;9390;51.244;6.982;2023-04-01T14:30:42;21.50;;;10.95;;
18520;SDS011;9390;51.244;6.982;2023-04-01T14:33:21;20.38;;;10.45;;
18520;SDS011;9390;51.244;6.982;2023-04-01T14:36:04;16.50;;;8.65;;
18520;SDS011;9390;51.244;6.982;2023-04-01T14:38:50;18.50;;;9.05;;
18520;SDS011;9390;51.244;6.982;2023-04-01T14:41:28;16.88;;;9.35;;
18520;SDS011;9390;51.244;6.982;2023-04-01T14:44:11;15.27;;;8.05;;
18520;SDS011;9390;51.244;6.982;2023-04-01T14:47:09;16.23;;;8.73;;
18520;SDS011;9390;51.244;6.982;2023-04-01T14:50:02;18.65;;;8.38;;
18520;SDS011;9390;51.244;6.982;2023-04-01T14:52:38;20.40;;;9.30;;
18520;SDS011;9390;51.244;6.982;2023-04-01T14:55:18;17.88;;;8.57;;
18520;SDS011;9390;51.244;6.982;2023-04-01T14:57:58;18.60;;;8.93;;
18520;SDS011;9390;51.244;6.982;2023-04-01T15:00:55;15.07;;;8.10;;
18520;SDS011;9390;51.244;6.982;2023-04-01T15:03:32;17.27;;;8.35;;
18520;SDS011;9390;51.244;6.982;2023-04-01T15:06:21;17.30;;;8.98;;
18520;SDS011;9390;51.244;6.982;2023-04-01T15:09:05;20.27;;;9.32;;
18520;SDS011;9390;51.244;6.982;2023-04-01T15:11:46;17.70;;;8.07;;
18520;SDS011;9390;51.244;6.982;2023-04-01T15:14:23;14.07;;;6.65;;
18520;SDS011;9390;51.244;6.982;2023-04-01T15:17:03;14.70;;;7.10;;
18520;SDS011;9390;51.244;6.982;2023-04-01T15:19:47;12.68;;;7.18;;
18520;SDS011;9390;51.244;6.982;2023-04-01T15:22:32;14.23;;;8.23;;
18520;SDS011;9390;51.244;6.982;2023-04-01T15:25:21;16.77;;;8.63;;
18520;SDS011;9390;51.244;6.982;2023-04-01T15:28:04;16.95;;;8.70;;
18520;SDS011;9390;51.244;6.982;2023-04-01T15:30:40;17.65;;;8.38;;
18520;SDS011;9390;51.244;6.982;2023-04-01T15:33:25;18.20;;;8.90;;
18520;SDS011;9390;51.244;6.982;2023-04-01T15:36:27;14.70;;;6.97;;
18520;SDS011;9390;51.244;6.982;2023-04-01T15:39:04;12.73;;;6.97;;
18520;SDS011;9390;51.244;6.982;2023-04-01T15:41:45;14.57;;;7.30;;
18520;SDS011;9390;51.244;6.982;2023-04-01T15:44:37;13.48;;;6.85;;
18520;SDS011;9390;51.244;6.982;2023-04-01T15:47:31;14.93;;;6.90;;
18520;SDS011;9390;51.244;6.982;2023-04-01T15:50:22;12.38;;;6.40;;
18520;SDS011;9390;51.244;6.982;2023-04-01T15:53:25;14.00;;;6.45;;
18520;SDS011;9390;51.244;6.982;2023-04-01T15:56:08;15.05;;;7.20;;
18520;SDS011;9390;51.244;6.982;2023-04-01T15:58:50;16.75;;;8.32;;
18520;SDS011;9390;51.244;6.982;2023-04-01T16:01:26;18.50;;;9.38;;
18520;SDS011;9390;51.244;6.982;2023-04-01T16:04:11;18.23;;;9.70;;
18520;SDS011;9390;51.244;6.982;2023-04-01T16:07:09;16.90;;;9.13;;
18520;SDS011;9390;51.244;6.982;2023-04-01T16:09:54;17.90;;;9.07;;
18520;SDS011;9390;51.244;6.982;2023-04-01T16:12:34;21.42;;;10.00;;
18520;SDS011;9390;51.244;6.982;2023-04-01T16:15:13;28.50;;;12.27;;
18520;SDS011;9390;51.244;6.982;2023-04-01T16:17:54;24.65;;;11.75;;
18520;SDS011;9390;51.244;6.982;2023-04-01T16:20:41;26.85;;;12.30;;
18520;SDS011;9390;51.244;6.982;2023-04-01T16:23:17;22.27;;;10.82;;
18520;SDS011;9390;51.244;6.982;2023-04-01T16:25:51;20.45;;;9.88;;
18520;SDS011;9390;51.244;6.982;2023-04-01T16:28:26;22.20;;;11.30;;
18520;SDS011;9390;51.244;6.982;2023-04-01T16:31:05;24.70;;;12.75;;
18520;SDS011;9390;51.244;6.982;2023-04-01T16:33:40;23.40;;;10.55;;
18520;SDS011;9390;51.244;6.982;2023-04-01T16:36:24;22.27;;;10.77;;
18520;SDS011;9390;51.244;6.982;2023-04-01T16:39:08;28.20;;;11.07;;
18520;SDS011;9390;51.244;6.982;2023-04-01T16:45:06;24.35;;;11.40;;
18520;SDS011;9390;51.244;6.982;2023-04-01T16:47:49;24.58;;;10.85;;
18520;SDS011;9390;51.244;6.982;2023-04-01T16:50:23;25.10;;;11.80;;
18520;SDS011;9390;51.244;6.982;2023-04-01T16:53:00;32.20;;;13.40;;
18520;SDS011;9390;51.244;6.982;2023-04-01T16:55:34;22.40;;;10.45;;
18520;SDS011;9390;51.244;6.982;2023-04-01T16:58:07;20.08;;;9.30;;
18520;SDS011;9390;51.244;6.982;2023-04-01T17:00:40;20.58;;;9.80;;
18520;SDS011;9390;51.244;6.982;2023-04-01T17:03:17;21.25;;;9.40;;
18520;SDS011;9390;51.244;6.982;2023-04-01T17:05:55;15.70;;;8.07;;
18520;SDS011;9390;51.244;6.982;2023-04-01T17:08:36;15.90;;;7.82;;
18520;SDS011;9390;51.244;6.982;2023-04-01T17:11:16;15.45;;;7.10;;